Time;durP1;ratioP1;P1;durP2;ratioP2;P2;SDS_P1;SDS_P2;PMS_P1;PMS_P2;Temp;Humidity;BMP_temperature;BMP_pressure;BME280_temperature;BME280_humidity;BME280_pressure;Samples;Min_cycle;Max_cycle;Signal;HPM_P1;HPM_P2
2024/04/22 00:01:19;;;;;;;4.28;3.22;;;5.10;99.90;;;;;;5328449;26;20339;-79
2024/04/22 00:03:50;;;;;;;4.28;2.83;;;5.10;99.90;;;;;;5334636;26;20005;-79
2024/04/22 00:06:19;;;;;;;4.18;2.40;;;5.10;99.90;;;;;;5392196;26;20343;-79
2024/04/22 00:08:45;;;;;;;3.88;2.55;;;5.10;99.90;;;;;;5337625;26;20359;-79
2024/04/22 00:11:11;;;;;;;3.38;2.30;;;5.20;99.90;;;;;;5307432;26;20028;-79
2024/04/22 00:13:37;;;;;;;3.70;2.35;;;5.20;99.90;;;;;;5338276;26;20472;-79
2024/04/22 00:16:03;;;;;;;6.97;2.90;;;5.10;99.90;;;;;;5333887;26;20005;-79
2024/04/22 00:18:29;;;;;;;3.15;2.45;;;5.10;99.90;;;;;;5335317;26;20491;-78
2024/04/22 00:20:55;;;;;;;4.75;2.28;;;5.10;99.90;;;;;;5339165;26;20009;-79
2024/04/22 00:23:21;;;;;;;4.55;2.47;;;5.10;99.90;;;;;;5338862;26;19996;-78
2024/04/22 00:25:47;;;;;;;3.17;2.45;;;5.10;99.90;;;;;;5320975;26;20467;-79
2024/04/22 00:28:15;;;;;;;4.75;3.15;;;5.10;99.90;;;;;;5341070;26;20009;-79
2024/04/22 00:30:41;;;;;;;5.82;3.20;;;5.20;99.90;;;;;;5335598;26;20004;-79
2024/04/22 00:33:10;;;;;;;5.85;3.00;;;5.20;99.90;;;;;;5337834;26;20019;-79
2024/04/22 00:35:38;;;;;;;5.47;3.10;;;5.20;99.90;;;;;;5338703;26;20032;-79
2024/04/22 00:38:04;;;;;;;7.85;4.68;;;5.10;99.90;;;;;;5336444;26;20016;-79
2024/04/22 00:40:30;;;;;;;5.00;3.00;;;5.20;99.90;;;;;;5341708;26;20015;-80
2024/04/22 00:42:59;;;;;;;4.90;2.80;;;5.10;99.90;;;;;;5326288;26;20478;-80
2024/04/22 00:45:24;;;;;;;6.45;3.17;;;5.00;99.90;;;;;;5306528;26;20034;-80
2024/04/22 00:47:50;;;;;;;6.35;2.95;;;5.00;99.90;;;;;;5335292;26;20009;-80
2024/04/22 00:50:18;;;;;;;4.72;2.83;;;5.00;99.90;;;;;;5351110;26;20473;-79
2024/04/22 00:52:45;;;;;;;5.22;3.30;;;5.00;99.90;;;;;;5334765;26;20035;-79
2024/04/22 00:55:12;;;;;;;4.75;3.10;;;5.00;99.90;;;;;;5341700;26;20005;-80
2024/04/22 00:57:41;;;;;;;5.13;3.30;;;5.00;99.90;;;;;;5337965;26;19998;-79
2024/04/22 01:00:07;;;;;;;4.28;3.22;;;5.00;99.90;;;;;;5339946;26;20008;-79
2024/04/22 01:02:34;;;;;;;4.47;3.15;;;5.00;99.90;;;;;;5336594;26;20009;-79
2024/04/22 01:05:00;;;;;;;4.03;3.00;;;5.10;99.90;;;;;;5327404;26;20013;-79
2024/04/22 01:07:30;;;;;;;6.18;3.40;;;5.10;99.90;;;;;;5344311;26;20462;-79
2024/04/22 01:10:04;;;;;;;4.90;3.17;;;5.10;99.90;;;;;;5347330;26;20471;-80
2024/04/22 01:12:30;;;;;;;5.82;3.15;;;5.10;99.90;;;;;;5328946;26;20460;-79
2024/04/22 01:14:56;;;;;;;3.97;2.80;;;5.10;99.90;;;;;;5338280;26;20008;-79
2024/04/22 01:17:22;;;;;;;5.55;2.83;;;5.10;99.90;;;;;;5341967;26;20472;-79
2024/04/22 01:19:48;;;;;;;4.90;3.30;;;5.10;99.90;;;;;;5372780;26;20009;-79
2024/04/22 01:22:14;;;;;;;5.93;3.00;;;5.10;99.90;;;;;;5339412;26;20331;-79
2024/04/22 01:24:43;;;;;;;4.53;3.28;;;5.10;99.90;;;;;;5335188;26;20633;-79
2024/04/22 01:27:13;;;;;;;4.75;3.50;;;5.00;99.90;;;;;;5402385;26;20336;-79
2024/04/22 01:29:39;;;;;;;4.63;3.20;;;5.00;99.90;;;;;;5335265;26;20012;-79
2024/04/22 01:32:05;;;;;;;4.53;3.42;;;5.00;99.90;;;;;;5326043;26;20013;-79
2024/04/22 01:34:31;;;;;;;6.07;3.70;;;5.00;99.90;;;;;;5337043;26;20480;-79
2024/04/22 01:36:58;;;;;;;5.57;4.03;;;4.90;99.90;;;;;;5322135;26;20004;-79
2024/04/22 01:39:23;;;;;;;5.00;3.50;;;4.90;99.90;;;;;;5340800;26;20090;-79
2024/04/22 01:41:51;;;;;;;5.72;3.95;;;4.80;99.90;;;;;;5340156;26;20483;-79
2024/04/22 01:44:18;;;;;;;4.95;4.00;;;4.80;99.90;;;;;;5336420;26;20008;-79
2024/04/22 01:46:43;;;;;;;6.68;3.92;;;4.70;99.90;;;;;;5338704;26;20016;-79
2024/04/22 01:49:09;;;;;;;5.70;3.78;;;4.70;99.90;;;;;;5333136;26;19997;-79
2024/04/22 01:51:35;;;;;;;6.85;4.32;;;4.60;99.90;;;;;;5344232;26;20377;-79
2024/04/22 01:54:01;;;;;;;5.63;3.70;;;4.60;99.90;;;;;;5395822;26;20075;-79
2024/04/22 01:56:27;;;;;;;6.07;4.30;;;4.50;99.90;;;;;;5315116;26;20023;-79
2024/04/22 01:58:53;;;;;;;6.20;4.63;;;4.50;99.90;;;;;;5332856;26;20494;-79
2024/04/22 02:01:19;;;;;;;6.22;4.30;;;4.40;99.90;;;;;;5334564;26;20020;-79
2024/04/22 02:03:46;;;;;;;5.50;4.28;;;4.40;99.90;;;;;;5335564;26;20005;-79
2024/04/22 02:06:12;;;;;;;4.90;4.20;;;4.30;99.90;;;;;;5335220;26;20005;-79
2024/04/22 02:08:42;;;;;;;6.80;4.28;;;4.20;99.90;;;;;;5334374;26;20041;-79
2024/04/22 02:11:08;;;;;;;5.13;3.65;;;4.20;99.90;;;;;;5327503;26;20001;-79
2024/04/22 02:13:34;;;;;;;6.57;4.18;;;4.20;99.90;;;;;;5334915;26;20005;-79
2024/04/22 02:15:59;;;;;;;4.90;3.67;;;4.20;99.90;;;;;;5340584;26;20355;-79
2024/04/22 02:18:27;;;;;;;4.95;3.55;;;4.20;99.90;;;;;;5314291;26;20001;-79
2024/04/22 02:20:53;;;;;;;6.63;4.43;;;4.10;99.90;;;;;;5334451;26;20005;-79
2024/04/22 02:23:19;;;;;;;5.53;4.03;;;4.10;99.90;;;;;;5336862;26;20012;-79
2024/04/22 02:25:46;;;;;;;5.05;4.28;;;4.10;99.90;;;;;;5349145;26;20017;-79
2024/04/22 02:28:12;;;;;;;4.53;3.80;;;4.00;99.90;;;;;;5322033;26;20001;-79
2024/04/22 02:30:39;;;;;;;4.97;3.70;;;4.00;99.90;;;;;;5335989;26;20001;-79
2024/04/22 02:33:08;;;;;;;6.35;4.82;;;3.90;99.90;;;;;;5316797;26;20024;-79
2024/04/22 02:35:34;;;;;;;4.75;3.53;;;4.00;99.90;;;;;;5326487;26;20108;-79
2024/04/22 02:38:01;;;;;;;5.25;3.63;;;3.90;99.90;;;;;;5331227;26;20075;-79
2024/04/22 02:40:27;;;;;;;5.05;3.60;;;3.90;99.90;;;;;;5333709;26;20479;-79
2024/04/22 02:42:59;;;;;;;5.00;3.88;;;3.90;99.90;;;;;;5335992;26;20082;-79
2024/04/22 02:45:25;;;;;;;5.13;3.50;;;3.80;99.90;;;;;;5356189;26;20009;-79
2024/04/22 02:47:51;;;;;;;5.93;3.95;;;3.80;99.90;;;;;;5332168;26;20016;-79
2024/04/22 02:50:17;;;;;;;5.68;4.00;;;3.80;99.90;;;;;;5332593;26;20028;-79
2024/04/22 02:52:43;;;;;;;5.50;3.83;;;3.70;99.90;;;;;;5335104;26;20013;-79
2024/04/22 02:55:10;;;;;;;6.40;4.68;;;3.70;99.90;;;;;;5332095;26;20478;-79
2024/04/22 02:57:37;;;;;;;6.07;5.20;;;3.70;99.90;;;;;;5335748;26;20005;-79
2024/04/22 03:00:04;;;;;;;6.22;4.57;;;3.60;99.90;;;;;;5329364;26;20002;-79
2024/04/22 03:02:30;;;;;;;7.32;5.07;;;3.60;99.90;;;;;;5331804;26;20020;-79
2024/04/22 03:04:58;;;;;;;7.25;5.32;;;3.60;99.90;;;;;;5335083;26;20017;-79
2024/04/22 03:07:24;;;;;;;5.28;4.20;;;3.50;99.90;;;;;;5336773;26;20023;-79
2024/04/22 03:09:50;;;;;;;6.60;5.07;;;3.50;99.90;;;;;;5334760;26;20028;-78
2024/04/22 03:12:36;;;;;;;6.88;4.90;;;3.40;99.90;;;;;;5331437;26;20005;-79
2024/04/22 03:15:03;;;;;;;5.95;4.80;;;3.40;99.90;;;;;;5333098;26;20013;-79
2024/04/22 03:17:29;;;;;;;6.85;5.13;;;3.40;99.90;;;;;;5336608;26;20001;-79
2024/04/22 03:19:55;;;;;;;7.30;4.88;;;3.30;99.90;;;;;;5331728;26;20046;-79
2024/04/22 03:22:27;;;;;;;7.97;5.63;;;3.30;99.90;;;;;;5333562;26;20235;-79
2024/04/22 03:24:56;;;;;;;6.25;5.22;;;3.20;99.90;;;;;;5335023;26;20028;-79
2024/04/22 03:27:24;;;;;;;6.13;4.63;;;3.30;99.90;;;;;;5366382;26;20019;-79
2024/04/22 03:29:50;;;;;;;5.63;4.78;;;3.20;99.90;;;;;;5333316;26;20007;-79
2024/04/22 03:32:16;;;;;;;7.13;4.97;;;3.20;99.90;;;;;;5341700;26;20817;-79
2024/04/22 03:34:42;;;;;;;7.00;5.47;;;3.10;99.90;;;;;;5331531;26;20347;-79
2024/04/22 03:37:28;;;;;;;6.07;4.70;;;3.10;99.90;;;;;;5332530;26;20001;-79
2024/04/22 03:39:54;;;;;;;6.22;4.43;;;3.10;99.90;;;;;;5335327;26;20343;-79
2024/04/22 03:42:20;;;;;;;5.50;4.88;;;3.00;99.90;;;;;;5332489;26;20842;-78
2024/04/22 03:44:45;;;;;;;6.93;4.55;;;3.00;99.90;;;;;;5337638;26;20506;-79
2024/04/22 03:50:15;;;;;;;5.15;4.40;;;3.10;99.90;;;;;;5336403;26;20001;-79
2024/04/22 03:52:42;;;;;;;4.95;4.20;;;3.00;99.90;;;;;;5339376;26;20023;-79
2024/04/22 03:55:22;;;;;;;4.93;4.43;;;3.00;99.90;;;;;;5333945;26;20452;-79
2024/04/22 03:57:48;;;;;;;8.30;5.45;;;3.10;99.90;;;;;;5364458;26;20097;-79
2024/04/22 04:00:34;;;;;;;6.63;4.95;;;3.00;99.90;;;;;;5327953;26;20334;-79
2024/04/22 04:02:59;;;;;;;7.60;4.72;;;2.90;99.90;;;;;;5321947;26;20009;-78
2024/04/22 04:05:31;;;;;;;6.32;4.20;;;2.80;99.90;;;;;;5339761;26;20083;-78
2024/04/22 04:08:00;;;;;;;6.65;5.10;;;2.80;99.90;;;;;;5332458;26;20005;-79
2024/04/22 04:10:26;;;;;;;5.85;4.28;;;2.70;99.90;;;;;;5334895;26;20009;-79
2024/04/22 04:12:52;;;;;;;6.57;5.00;;;2.70;99.90;;;;;;5336822;26;20091;-78
2024/04/22 04:15:18;;;;;;;8.75;5.43;;;2.70;99.90;;;;;;5338659;26;20040;-79
2024/04/22 04:18:04;;;;;;;6.22;4.47;;;2.60;99.90;;;;;;5325966;26;20367;-79
2024/04/22 04:20:30;;;;;;;6.60;4.32;;;2.70;99.90;;;;;;5323438;26;20460;-79
2024/04/22 04:22:56;;;;;;;5.15;4.30;;;2.70;99.90;;;;;;5321578;26;20016;-79
2024/04/22 04:25:21;;;;;;;7.30;4.65;;;2.80;99.90;;;;;;5341927;26;20009;-79
2024/04/22 04:27:48;;;;;;;8.18;4.80;;;2.70;99.90;;;;;;5333092;26;20008;-79
2024/04/22 04:30:14;;;;;;;7.40;4.75;;;2.70;99.90;;;;;;5348287;26;21484;-79
2024/04/22 04:32:39;;;;;;;7.43;5.13;;;2.70;99.90;;;;;;5340164;26;20011;-79
2024/04/22 04:35:05;;;;;;;7.97;5.40;;;2.70;99.90;;;;;;5355126;26;20396;-78
2024/04/22 04:37:34;;;;;;;8.13;6.20;;;2.70;99.90;;;;;;5330380;26;19998;-80
2024/04/22 04:40:00;;;;;;;6.88;5.03;;;2.70;99.90;;;;;;5334727;26;20574;-79
2024/04/22 04:42:26;;;;;;;9.30;6.57;;;2.70;99.90;;;;;;5396809;26;20013;-79
2024/04/22 04:44:52;;;;;;;7.63;5.70;;;2.70;99.90;;;;;;5336439;26;20055;-80
2024/04/22 04:47:18;;;;;;;7.57;5.57;;;2.90;99.90;;;;;;5329018;26;20009;-83
2024/04/22 04:49:44;;;;;;;9.20;5.30;;;3.00;99.90;;;;;;5336422;26;20345;-87
2024/04/22 04:52:10;;;;;;;6.75;5.30;;;3.00;99.90;;;;;;5376378;26;20460;-86
2024/04/22 04:54:36;;;;;;;6.50;3.92;;;3.10;99.90;;;;;;5333043;26;20021;-85
2024/04/22 04:57:02;;;;;;;5.03;4.10;;;3.20;99.90;;;;;;5333079;26;20029;-83
2024/04/22 04:59:28;;;;;;;7.03;4.57;;;3.40;99.90;;;;;;5310094;26;20005;-83
2024/04/22 05:01:53;;;;;;;5.90;4.10;;;3.30;99.90;;;;;;5335712;26;20024;-82
2024/04/22 05:04:19;;;;;;;6.57;4.70;;;3.40;99.90;;;;;;5333539;26;20034;-82
2024/04/22 05:06:47;;;;;;;5.65;4.00;;;3.50;99.90;;;;;;5332946;26;20005;-82
2024/04/22 05:09:14;;;;;;;6.30;4.70;;;3.60;99.90;;;;;;5337919;26;20009;-82
2024/04/22 05:11:44;;;;;;;6.82;4.72;;;3.80;99.90;;;;;;5340499;26;20013;-82
2024/04/22 05:14:13;;;;;;;5.97;4.22;;;3.70;99.90;;;;;;5392779;26;20078;-82
2024/04/22 05:16:39;;;;;;;4.75;3.95;;;3.80;99.90;;;;;;5331603;26;20001;-82
2024/04/22 05:19:05;;;;;;;6.85;4.63;;;3.70;99.90;;;;;;5327447;26;20494;-82
2024/04/22 05:21:31;;;;;;;7.05;4.93;;;3.70;99.90;;;;;;5329612;26;20614;-82
2024/04/22 05:24:40;;;;;;;7.88;5.20;;;3.80;99.90;;;;;;5332791;26;20013;-82
2024/04/22 05:31:05;;;;;;;8.82;5.60;;;3.90;99.90;;;;;;5222972;27;20371;-82
2024/04/22 05:36:16;;;;;;;6.32;4.80;;;3.90;99.90;;;;;;5293875;26;20051;-82
2024/04/22 05:38:42;;;;;;;7.72;6.00;;;4.10;99.90;;;;;;5329032;26;20019;-82
2024/04/22 05:41:09;;;;;;;6.93;5.10;;;4.00;99.90;;;;;;5327981;26;20583;-82
2024/04/22 05:43:35;;;;;;;6.65;5.30;;;4.10;99.90;;;;;;5334121;26;20456;-83
2024/04/22 05:46:03;;;;;;;7.13;5.53;;;4.20;99.90;;;;;;5329250;26;20008;-82
2024/04/22 05:48:29;;;;;;;7.13;5.13;;;4.20;99.90;;;;;;5303079;26;20031;-82
2024/04/22 05:50:55;;;;;;;7.57;5.50;;;4.20;99.90;;;;;;5333631;26;20004;-82
2024/04/22 05:53:21;;;;;;;7.30;5.50;;;4.30;99.90;;;;;;5332382;26;20373;-82
2024/04/22 05:55:50;;;;;;;7.95;5.45;;;4.40;99.90;;;;;;5335499;26;20016;-83
2024/04/22 05:58:16;;;;;;;7.55;5.75;;;4.40;99.90;;;;;;5329498;26;21595;-82
2024/04/22 06:00:42;;;;;;;6.90;5.47;;;4.40;99.90;;;;;;5336144;26;20530;-81
2024/04/22 06:03:08;;;;;;;9.20;6.00;;;4.40;99.90;;;;;;5332545;26;20351;-82
2024/04/22 06:05:40;;;;;;;8.52;5.00;;;4.40;99.90;;;;;;5330992;26;20024;-82
2024/04/22 06:08:07;;;;;;;8.95;6.10;;;4.40;99.90;;;;;;5333960;26;20340;-82
2024/04/22 06:10:33;;;;;;;5.70;4.80;;;4.40;99.90;;;;;;5326956;26;20006;-82
2024/04/22 06:12:58;;;;;;;8.23;6.78;;;4.60;99.90;;;;;;5331355;26;20383;-81
2024/04/22 06:15:24;;;;;;;6.38;4.80;;;4.60;99.90;;;;;;5329160;26;20086;-82
2024/04/22 06:17:50;;;;;;;6.65;5.68;;;4.70;99.90;;;;;;5331806;26;21121;-82
2024/04/22 06:20:17;;;;;;;6.30;5.15;;;4.70;99.90;;;;;;5325767;26;20021;-81
2024/04/22 06:22:46;;;;;;;8.55;5.72;;;4.80;99.90;;;;;;5327964;26;20005;-81
2024/04/22 06:25:12;;;;;;;6.97;5.43;;;4.80;99.90;;;;;;5333386;26;20011;-81
2024/04/22 06:27:38;;;;;;;6.32;5.35;;;4.90;99.90;;;;;;5328205;26;20012;-82
2024/04/22 06:30:04;;;;;;;6.90;5.13;;;5.00;99.90;;;;;;5326398;26;20024;-82
2024/04/22 06:32:34;;;;;;;6.97;5.60;;;5.00;99.90;;;;;;5328130;26;20016;-81
2024/04/22 06:35:02;;;;;;;7.03;5.45;;;5.10;99.90;;;;;;5330389;26;20024;-82
2024/04/22 06:37:28;;;;;;;7.53;6.45;;;5.10;99.90;;;;;;5327137;26;20352;-82
2024/04/22 06:39:53;;;;;;;6.25;5.20;;;5.20;99.90;;;;;;5330567;26;20016;-83
2024/04/22 06:42:21;;;;;;;8.57;5.55;;;5.20;99.90;;;;;;5334276;26;20001;-82
2024/04/22 06:44:48;;;;;;;6.95;5.40;;;5.20;99.90;;;;;;5333045;26;20100;-82
2024/04/22 06:47:14;;;;;;;8.43;6.38;;;5.20;99.90;;;;;;5330364;26;20086;-83
2024/04/22 06:49:40;;;;;;;8.30;5.93;;;5.30;99.90;;;;;;5331475;26;20013;-82
2024/04/22 06:52:06;;;;;;;8.55;6.00;;;5.40;99.90;;;;;;5334434;26;20013;-82
2024/04/22 06:54:32;;;;;;;8.50;5.72;;;5.40;99.90;;;;;;5334668;26;20033;-82
2024/04/22 06:56:58;;;;;;;8.93;6.07;;;5.40;99.90;;;;;;5327900;26;20009;-82
2024/04/22 06:59:24;;;;;;;7.38;5.65;;;5.50;99.90;;;;;;5335554;26;20890;-83
2024/04/22 07:01:50;;;;;;;6.47;5.28;;;5.50;99.90;;;;;;5334569;26;20005;-82
2024/04/22 07:04:17;;;;;;;7.97;5.55;;;5.60;99.90;;;;;;5336573;26;22418;-82
2024/04/22 07:06:43;;;;;;;10.88;6.57;;;5.60;99.90;;;;;;5332099;26;20009;-83
2024/04/22 07:09:10;;;;;;;9.07;6.10;;;5.70;99.90;;;;;;5334847;26;20012;-83
2024/04/22 07:11:37;;;;;;;8.73;5.78;;;5.70;99.90;;;;;;5336276;26;20571;-83
2024/04/22 07:14:03;;;;;;;8.15;6.22;;;5.80;99.90;;;;;;5334809;26;20023;-83
2024/04/22 07:16:29;;;;;;;7.93;5.63;;;5.90;99.90;;;;;;5332267;26;20013;-83
2024/04/22 07:18:55;;;;;;;8.45;6.18;;;6.00;99.90;;;;;;5334782;26;20005;-83
2024/04/22 07:21:22;;;;;;;8.30;5.20;;;6.10;99.90;;;;;;5333730;26;20360;-83
2024/04/22 07:23:48;;;;;;;7.47;4.80;;;6.20;99.90;;;;;;5336753;26;20005;-83
2024/04/22 07:26:14;;;;;;;7.97;5.38;;;6.20;99.90;;;;;;5332601;26;20023;-83
2024/04/22 07:28:40;;;;;;;7.93;5.18;;;6.30;99.90;;;;;;5335378;26;20040;-83
2024/04/22 07:31:06;;;;;;;6.60;4.85;;;6.40;99.90;;;;;;5358608;26;20475;-83
2024/04/22 07:33:32;;;;;;;6.22;4.65;;;6.50;99.90;;;;;;5340332;26;20016;-83
2024/04/22 07:36:15;;;;;;;5.35;3.80;;;6.50;99.90;;;;;;5334240;26;20001;-83
2024/04/22 07:38:43;;;;;;;5.60;3.95;;;6.60;99.90;;;;;;5363153;26;20033;-83
2024/04/22 07:41:09;;;;;;;6.63;4.32;;;6.60;99.90;;;;;;5331599;26;20028;-83
2024/04/22 07:43:35;;;;;;;4.70;3.00;;;6.60;99.90;;;;;;5336773;26;20033;-84
2024/04/22 07:46:01;;;;;;;6.05;3.35;;;6.60;99.90;;;;;;5332351;26;20016;-83
2024/04/22 07:48:27;;;;;;;5.57;3.47;;;6.70;99.90;;;;;;5340035;26;20017;-84
2024/04/22 07:50:53;;;;;;;5.35;3.10;;;6.80;99.90;;;;;;5330716;26;20083;-84
2024/04/22 07:53:22;;;;;;;4.70;3.00;;;6.80;99.90;;;;;;5335104;26;20081;-82
2024/04/22 07:55:51;;;;;;;4.72;2.50;;;7.00;99.90;;;;;;5335260;26;20269;-83
2024/04/22 07:58:20;;;;;;;3.60;2.47;;;7.10;99.90;;;;;;5336115;26;20004;-84
2024/04/22 08:00:49;;;;;;;4.85;2.47;;;7.10;99.90;;;;;;5338419;26;20051;-82
2024/04/22 08:03:15;;;;;;;4.53;2.25;;;7.20;99.90;;;;;;5332324;26;20012;-83
2024/04/22 08:05:41;;;;;;;3.55;1.88;;;7.20;99.90;;;;;;5337262;26;20426;-84
2024/04/22 08:08:08;;;;;;;4.90;2.45;;;7.30;99.90;;;;;;5333161;26;20006;-85
2024/04/22 08:10:35;;;;;;;3.88;1.92;;;7.40;99.90;;;;;;5329371;26;20013;-85
2024/04/22 08:13:01;;;;;;;3.65;1.70;;;7.50;99.90;;;;;;5335990;26;20032;-84
2024/04/22 08:15:27;;;;;;;2.75;1.60;;;7.80;99.90;;;;;;5337151;26;20016;-84
2024/04/22 08:17:53;;;;;;;4.68;1.80;;;8.00;99.90;;;;;;5333476;26;20000;-83
2024/04/22 08:20:19;;;;;;;3.80;1.90;;;8.10;99.90;;;;;;5330798;26;20023;-83
2024/04/22 08:22:45;;;;;;;3.00;1.70;;;8.20;99.90;;;;;;5337117;26;20005;-82
2024/04/22 08:25:11;;;;;;;4.65;1.50;;;8.40;99.90;;;;;;5335881;26;20012;-84
2024/04/22 08:27:37;;;;;;;3.83;1.90;;;8.50;99.90;;;;;;5334921;26;20420;-84
2024/04/22 08:30:03;;;;;;;5.03;2.33;;;8.60;99.90;;;;;;5333963;26;20034;-83
2024/04/22 08:32:29;;;;;;;4.22;2.00;;;8.60;98.60;;;;;;5337945;26;20020;-83
2024/04/22 08:34:55;;;;;;;3.92;2.40;;;8.60;98.50;;;;;;5334261;26;20009;-83
2024/04/22 08:37:21;;;;;;;3.42;1.95;;;8.60;99.50;;;;;;5331583;26;19997;-82
2024/04/22 08:39:47;;;;;;;4.25;2.00;;;8.70;99.90;;;;;;5336039;26;20020;-84
2024/04/22 08:42:14;;;;;;;2.92;1.60;;;8.80;98.90;;;;;;5332370;26;20017;-84
2024/04/22 08:44:41;;;;;;;4.18;1.70;;;8.90;97.60;;;;;;5329829;26;20016;-82
2024/04/22 08:47:07;;;;;;;2.80;1.65;;;9.00;96.60;;;;;;5333053;26;20467;-82
2024/04/22 08:49:33;;;;;;;3.03;1.55;;;9.00;94.00;;;;;;5329429;26;20013;-83
2024/04/22 08:51:59;;;;;;;5.00;1.70;;;9.00;92.40;;;;;;5335415;26;20453;-84
2024/04/22 08:54:26;;;;;;;4.18;1.85;;;9.00;92.40;;;;;;5336299;26;20020;-82
2024/04/22 08:56:55;;;;;;;3.72;1.83;;;8.90;90.90;;;;;;5334429;26;20308;-83
2024/04/22 08:59:22;;;;;;;5.80;1.80;;;8.90;93.40;;;;;;5336826;26;20085;-83
2024/04/22 09:02:04;;;;;;;2.72;1.60;;;9.00;93.30;;;;;;5342233;26;20017;-82
2024/04/22 09:04:30;;;;;;;3.53;1.40;;;9.10;93.60;;;;;;5334888;26;20019;-82
2024/04/22 09:06:56;;;;;;;4.93;2.05;;;8.90;91.90;;;;;;5331821;26;20016;-83
2024/04/22 09:09:22;;;;;;;3.95;1.92;;;8.80;92.40;;;;;;5333456;26;20009;-83
2024/04/22 09:11:53;;;;;;;3.22;1.58;;;8.70;93.30;;;;;;5335741;26;20021;-83
2024/04/22 09:14:19;;;;;;;3.80;2.00;;;8.60;91.20;;;;;;5337066;26;20009;-83
2024/04/22 09:16:45;;;;;;;3.67;1.88;;;8.60;90.80;;;;;;5333980;26;20013;-84
2024/04/22 09:19:20;;;;;;;3.42;1.75;;;8.50;92.60;;;;;;5334547;26;20009;-83
2024/04/22 09:21:51;;;;;;;2.80;1.15;;;8.60;91.50;;;;;;5329225;26;21249;-81
2024/04/22 09:24:17;;;;;;;2.28;1.50;;;8.70;88.40;;;;;;5339426;26;20008;-83
2024/04/22 09:26:46;;;;;;;3.15;1.70;;;8.90;86.10;;;;;;5308684;26;20419;-82
2024/04/22 09:29:17;;;;;;;4.07;1.60;;;9.10;91.20;;;;;;5337395;26;20825;-82
2024/04/22 09:31:44;;;;;;;;;;;9.30;86.60;;;;;;5336358;26;20067;-81
2024/04/22 09:34:12;;;;;;;3.63;1.98;;;9.20;83.40;;;;;;5334333;26;20446;-83
2024/04/22 09:36:39;;;;;;;3.55;1.83;;;9.10;87.60;;;;;;5337276;26;20224;-82
2024/04/22 09:39:06;;;;;;;4.47;2.40;;;9.10;90.30;;;;;;5334531;26;20020;-83
2024/04/22 09:41:34;;;;;;;2.63;1.63;;;9.10;90.60;;;;;;5333573;26;20009;-81
2024/04/22 09:44:02;;;;;;;3.10;1.45;;;9.20;82.80;;;;;;5331422;26;20008;-83
2024/04/22 09:46:30;;;;;;;3.75;1.80;;;9.00;79.80;;;;;;5335880;26;20013;-82
2024/04/22 09:48:57;;;;;;;4.72;1.55;;;9.00;84.50;;;;;;5332818;26;20416;-82
2024/04/22 09:51:24;;;;;;;2.70;1.40;;;9.10;83.30;;;;;;5364193;26;20027;-83
2024/04/22 09:53:50;;;;;;;3.92;1.83;;;9.10;80.30;;;;;;5331470;26;20005;-81
2024/04/22 09:56:24;;;;;;;4.93;1.88;;;9.10;80.30;;;;;;5334080;26;20015;-82
2024/04/22 09:58:51;;;;;;;3.95;2.00;;;9.20;81.60;;;;;;5329367;26;20013;-82
2024/04/22 10:01:17;;;;;;;3.25;1.80;;;9.20;80.50;;;;;;5333963;26;20005;-82
2024/04/22 10:03:44;;;;;;;2.75;1.50;;;9.20;82.60;;;;;;5337338;26;20017;-83
2024/04/22 10:06:11;;;;;;;2.90;1.80;;;9.30;86.40;;;;;;5336227;26;20038;-82
2024/04/22 10:08:37;;;;;;;4.15;1.80;;;9.60;82.60;;;;;;5335432;26;20024;-83
2024/04/22 10:11:07;;;;;;;2.53;1.52;;;9.60;80.80;;;;;;5335263;26;20009;-82
2024/04/22 10:13:35;;;;;;;3.17;2.00;;;9.50;83.30;;;;;;5331381;26;20009;-82
2024/04/22 10:16:01;;;;;;;4.25;1.63;;;9.40;82.40;;;;;;5334205;26;20024;-83
2024/04/22 10:18:27;;;;;;;3.80;1.98;;;9.20;82.00;;;;;;5305388;26;20356;-84
2024/04/22 10:21:05;;;;;;;3.58;1.60;;;9.10;85.50;;;;;;5334762;26;20078;-83
2024/04/22 10:23:33;;;;;;;4.03;2.15;;;9.00;85.30;;;;;;5332584;26;20009;-82
2024/04/22 10:25:59;;;;;;;2.58;1.60;;;9.20;85.50;;;;;;5332619;26;20000;-81
2024/04/22 10:28:25;;;;;;;2.97;1.70;;;9.20;85.00;;;;;;5333889;26;20017;-84
2024/04/22 10:30:56;;;;;;;4.88;1.90;;;9.30;84.40;;;;;;5334896;26;20005;-82
2024/04/22 10:33:22;;;;;;;2.22;1.50;;;9.40;85.00;;;;;;5332119;26;20024;-83
2024/04/22 10:35:48;;;;;;;1.90;1.20;;;9.50;83.40;;;;;;5335776;26;20017;-83
2024/04/22 10:38:14;;;;;;;2.63;1.80;;;9.50;83.60;;;;;;5337386;26;20454;-84
2024/04/22 10:40:40;;;;;;;4.75;2.00;;;9.40;83.50;;;;;;5334883;26;20386;-83
2024/04/22 10:43:07;;;;;;;2.78;2.03;;;9.20;84.50;;;;;;5332671;26;20027;-82
2024/04/22 10:45:33;;;;;;;3.13;1.95;;;9.10;83.90;;;;;;5330107;26;20000;-83
2024/04/22 10:47:59;;;;;;;3.13;2.10;;;9.10;86.50;;;;;;5329690;26;20016;-83
2024/04/22 10:50:25;;;;;;;4.00;1.88;;;9.10;82.50;;;;;;5335144;26;20013;-83
2024/04/22 10:52:50;;;;;;;3.58;1.80;;;9.10;83.20;;;;;;5329124;26;20009;-84
2024/04/22 10:55:16;;;;;;;3.25;2.03;;;9.10;84.50;;;;;;5335172;26;20009;-82
2024/04/22 10:57:42;;;;;;;4.00;2.78;;;9.00;87.50;;;;;;5334820;26;20009;-84
2024/04/22 11:00:08;;;;;;;5.25;2.70;;;8.90;92.20;;;;;;5333393;26;20351;-84
2024/04/22 11:02:35;;;;;;;4.97;2.53;;;8.70;93.00;;;;;;5355859;26;20112;-83
2024/04/22 11:05:01;;;;;;;4.53;2.67;;;8.50;93.10;;;;;;5331380;26;20020;-83
2024/04/22 11:07:30;;;;;;;5.13;3.00;;;8.40;93.60;;;;;;5330525;26;20475;-83
2024/04/22 11:10:00;;;;;;;4.20;3.08;;;8.50;95.20;;;;;;5331539;26;20345;-82
2024/04/22 11:12:27;;;;;;;4.45;2.95;;;8.80;96.70;;;;;;5329243;26;20013;-83
2024/04/22 11:14:56;;;;;;;4.53;2.97;;;9.00;96.50;;;;;;5332766;26;20009;-84
2024/04/22 11:17:23;;;;;;;3.72;2.40;;;9.00;95.90;;;;;;5331227;26;20705;-82
2024/04/22 11:19:49;;;;;;;4.47;2.20;;;9.00;95.50;;;;;;5335585;26;20005;-84
2024/04/22 11:22:16;;;;;;;3.83;1.50;;;9.20;95.20;;;;;;5333397;26;20024;-83
2024/04/22 11:24:42;;;;;;;4.50;2.08;;;9.30;90.50;;;;;;5327123;26;20005;-84
2024/04/22 11:27:08;;;;;;;5.38;2.13;;;9.30;88.10;;;;;;5335046;26;20012;-84
2024/04/22 11:29:34;;;;;;;3.00;1.50;;;9.20;90.60;;;;;;5329907;26;20009;-84
2024/04/22 11:32:01;;;;;;;5.25;2.05;;;9.20;90.70;;;;;;5332700;26;20383;-84
2024/04/22 11:34:28;;;;;;;4.30;1.73;;;9.20;88.80;;;;;;5331539;26;20013;-84
2024/04/22 11:36:58;;;;;;;3.03;1.60;;;9.10;87.90;;;;;;5331514;26;20017;-83
2024/04/22 11:39:28;;;;;;;3.63;1.60;;;9.10;88.60;;;;;;5329372;26;20012;-83
2024/04/22 11:41:57;;;;;;;3.15;1.50;;;9.10;88.30;;;;;;5332945;26;20464;-84
2024/04/22 11:44:23;;;;;;;3.13;1.33;;;9.10;87.40;;;;;;5333402;26;20017;-84
2024/04/22 11:46:49;;;;;;;2.17;1.27;;;9.20;84.40;;;;;;5335290;26;22892;-83
2024/04/22 11:49:15;;;;;;;3.97;1.83;;;9.20;82.00;;;;;;5336388;26;20062;-84
2024/04/22 11:51:41;;;;;;;4.40;1.40;;;9.40;77.90;;;;;;5336624;26;20143;-85
2024/04/22 11:54:08;;;;;;;3.20;1.30;;;9.50;77.50;;;;;;5310662;26;20225;-84
2024/04/22 11:56:35;;;;;;;2.47;1.20;;;9.50;77.30;;;;;;5338144;26;20005;-82
2024/04/22 11:59:05;;;;;;;4.22;1.30;;;9.40;74.20;;;;;;5336566;26;20024;-84
2024/04/22 12:01:31;;;;;;;5.83;1.70;;;9.20;72.10;;;;;;5338871;26;20020;-83
2024/04/22 12:04:00;;;;;;;2.78;1.10;;;9.30;71.80;;;;;;5332282;26;20235;-84
2024/04/22 12:06:30;;;;;;;2.78;1.73;;;9.10;72.00;;;;;;5338576;26;20023;-83
2024/04/22 12:08:56;;;;;;;6.10;1.40;;;9.30;72.50;;;;;;5333012;26;20001;-83
2024/04/22 12:11:22;;;;;;;5.53;1.65;;;9.50;72.50;;;;;;5334124;26;20008;-83
2024/04/22 12:13:50;;;;;;;2.70;1.42;;;9.50;71.30;;;;;;5336451;26;20083;-85
2024/04/22 12:16:20;;;;;;;4.78;1.42;;;9.60;70.20;;;;;;5335300;26;20093;-83
2024/04/22 12:18:46;;;;;;;2.38;1.00;;;9.70;69.10;;;;;;5336596;26;20012;-84
2024/04/22 12:21:12;;;;;;;2.55;1.00;;;9.90;63.30;;;;;;5326587;26;20016;-84
2024/04/22 12:23:38;;;;;;;4.07;1.50;;;10.00;61.00;;;;;;5335057;26;20009;-83
2024/04/22 12:26:06;;;;;;;2.50;1.08;;;10.00;61.60;;;;;;5335474;26;20049;-83
2024/04/22 12:28:32;;;;;;;2.85;1.10;;;10.10;61.00;;;;;;5337467;26;20005;-82
2024/04/22 12:30:58;;;;;;;1.50;0.93;;;10.10;62.20;;;;;;5335470;26;20025;-84
2024/04/22 12:33:24;;;;;;;8.38;1.60;;;10.20;61.10;;;;;;5339158;26;20009;-84
2024/04/22 12:35:50;;;;;;;2.78;1.00;;;10.30;60.00;;;;;;5329626;26;20009;-83
2024/04/22 12:38:16;;;;;;;3.53;1.00;;;10.50;57.10;;;;;;5336719;26;20905;-87
2024/04/22 12:40:42;;;;;;;3.20;1.00;;;10.40;55.60;;;;;;5336308;26;20082;-82
2024/04/22 12:43:08;;;;;;;1.63;0.80;;;10.40;55.00;;;;;;5332300;26;20079;-82
2024/04/22 12:45:35;;;;;;;2.55;0.90;;;10.40;54.10;;;;;;5333799;26;20009;-89
2024/04/22 12:50:48;;;;;;;3.35;1.10;;;10.30;57.00;;;;;;5337474;26;20007;-84
2024/04/22 12:53:15;;;;;;;2.40;1.00;;;10.40;56.60;;;;;;5332672;26;20025;-85
2024/04/22 12:55:41;;;;;;;1.83;1.10;;;10.40;55.50;;;;;;5366776;26;20024;-83
2024/04/22 12:58:10;;;;;;;1.75;0.98;;;10.40;56.10;;;;;;5357825;26;19997;-84
2024/04/22 13:00:37;;;;;;;2.55;0.82;;;10.40;55.00;;;;;;5338279;26;20127;-84
2024/04/22 13:03:04;;;;;;;2.60;0.88;;;10.40;54.30;;;;;;5333688;26;20005;-85
2024/04/22 13:05:34;;;;;;;1.95;0.90;;;10.40;56.70;;;;;;5336728;26;20059;-85
2024/04/22 13:08:00;;;;;;;1.05;0.75;;;10.50;54.60;;;;;;5336468;26;20015;-85
2024/04/22 13:10:26;;;;;;;2.95;0.90;;;10.50;54.70;;;;;;5335762;26;20009;-84